Time;durP1;ratioP1;P1;durP2;ratioP2;P2;SDS_P1;SDS_P2;PMS_P1;PMS_P2;Temp;Humidity;BMP_temperature;BMP_pressure;BME280_temperature;BME280_humidity;BME280_pressure;Samples;Min_cycle;Max_cycle;Signal;HPM_P1;HPM_P2
2021/03/21 00:02:24;;;;;;;1.77;1.13;;;;;;;9.58;54.27;101045.81;4921655;28;104761;-63
2021/03/21 00:04:50;;;;;;;2.65;1.50;;;;;;;9.58;53.79;101045.81;4922192;28;99564;-63
2021/03/21 00:07:16;;;;;;;2.75;1.40;;;;;;;9.57;54.17;101038.81;4921078;28;128739;-60
2021/03/21 00:09:42;;;;;;;3.22;1.65;;;;;;;9.55;53.96;101032.88;4921224;28;118005;-60
2021/03/21 00:12:09;;;;;;;2.28;1.20;;;;;;;9.56;53.76;101036.38;4921296;28;124418;-60
2021/03/21 00:14:35;;;;;;;2.13;1.40;;;;;;;9.56;53.88;101026.44;4921096;28;97935;-62
2021/03/21 00:17:02;;;;;;;2.70;1.55;;;;;;;9.53;54.18;101026.91;4921038;28;97934;-63
2021/03/21 00:19:28;;;;;;;2.38;1.50;;;;;;;9.55;54.21;101019.44;4922536;28;98897;-63
2021/03/21 00:21:54;;;;;;;2.17;1.13;;;;;;;9.55;54.79;101007.84;4922629;28;98082;-62
2021/03/21 00:24:20;;;;;;;1.95;1.02;;;;;;;9.54;54.07;101009.69;4920684;28;126820;-62
2021/03/21 00:26:46;;;;;;;1.88;1.20;;;;;;;9.56;53.97;101010.28;4921655;28;98272;-62
2021/03/21 00:29:12;;;;;;;2.17;1.23;;;;;;;9.56;54.07;101001.41;4920598;28;127579;-63
2021/03/21 00:31:38;;;;;;;2.20;1.13;;;;;;;9.55;54.10;100997.91;4951555;28;121577;-63
2021/03/21 00:34:05;;;;;;;2.33;1.05;;;;;;;9.49;53.69;100987.28;4919916;28;115178;-60
2021/03/21 00:36:31;;;;;;;2.45;1.33;;;;;;;9.53;54.19;100988.44;4919792;28;98916;-62
2021/03/21 00:38:57;;;;;;;1.85;1.25;;;;;;;9.53;53.83;100983.03;4921585;28;98711;-60
2021/03/21 00:41:27;;;;;;;2.10;1.10;;;;;;;9.54;54.10;100980.09;4922326;28;97852;-60
2021/03/21 00:43:55;;;;;;;1.80;1.00;;;;;;;9.51;54.41;100980.63;4920751;28;99174;-63
2021/03/21 00:46:21;;;;;;;2.20;1.10;;;;;;;9.54;53.65;100957.75;4921336;28;98637;-63
2021/03/21 00:48:47;;;;;;;1.80;1.10;;;;;;;9.53;53.46;100966.91;4920950;28;102703;-60
2021/03/21 00:51:14;;;;;;;2.10;1.20;;;;;;;9.51;54.43;100966.31;4920471;28;116161;-63
2021/03/21 00:53:41;;;;;;;1.98;1.15;;;;;;;9.52;54.01;100954.50;4920843;28;110596;-60
2021/03/21 00:56:08;;;;;;;2.65;1.33;;;;;;;9.50;54.31;100949.34;4920825;28;98110;-60
2021/03/21 00:58:36;;;;;;;2.05;1.20;;;;;;;9.48;54.03;100937.22;4920578;28;97876;-60
2021/03/21 01:01:02;;;;;;;2.33;1.13;;;;;;;9.49;53.66;100942.34;4921132;28;98170;-63
2021/03/21 01:03:28;;;;;;;1.77;1.23;;;;;;;9.51;54.08;100931.31;4920900;28;98666;-61
2021/03/21 01:06:00;;;;;;;3.15;1.30;;;;;;;9.50;53.74;100927.00;4919833;28;127571;-64
2021/03/21 01:08:37;;;;;;;2.30;0.97;;;;;;;9.49;54.32;100928.91;4921354;28;98301;-60
2021/03/21 01:11:14;;;;;;;1.80;1.13;;;;;;;9.49;54.63;100930.78;4919458;28;97995;-61
2021/03/21 01:13:41;;;;;;;2.13;1.27;;;;;;;9.50;53.93;100916.25;4919438;28;98430;-60
2021/03/21 01:16:12;;;;;;;1.88;1.05;;;;;;;9.47;54.16;100914.91;4921738;28;98671;-60
2021/03/21 01:18:38;;;;;;;1.85;1.02;;;;;;;9.48;53.82;100915.69;4921283;28;98413;-63
2021/03/21 01:21:05;;;;;;;2.78;1.05;;;;;;;9.48;54.38;100916.50;4921151;28;98386;-63
2021/03/21 01:23:31;;;;;;;2.15;0.95;;;;;;;9.48;53.90;100913.81;4918525;28;98981;-63
2021/03/21 01:25:57;;;;;;;2.88;1.10;;;;;;;9.47;54.37;100906.81;4921424;28;98371;-63
2021/03/21 01:28:30;;;;;;;2.05;1.13;;;;;;;9.48;54.32;100908.44;4923080;28;101236;-61
2021/03/21 01:30:58;;;;;;;1.80;1.05;;;;;;;9.48;55.05;100889.59;4903158;28;98115;-60
2021/03/21 01:33:26;;;;;;;2.22;1.23;;;;;;;9.51;54.52;100888.28;4920435;28;99224;-62
2021/03/21 01:35:52;;;;;;;1.77;0.93;;;;;;;9.51;55.07;100897.19;4921102;28;98980;-61
2021/03/21 01:38:19;;;;;;;2.70;0.90;;;;;;;9.50;54.72;100889.34;4917793;28;112312;-63
2021/03/21 01:40:46;;;;;;;1.95;1.00;;;;;;;9.50;55.24;100875.88;4921708;28;97927;-63
2021/03/21 01:43:17;;;;;;;2.78;1.02;;;;;;;9.51;54.92;100877.50;4920941;28;98628;-60
2021/03/21 01:45:50;;;;;;;1.70;0.80;;;;;;;9.53;55.09;100868.13;4921270;28;98800;-63
2021/03/21 01:48:37;;;;;;;2.10;1.05;;;;;;;9.49;54.91;100858.94;4924009;28;98097;-63
2021/03/21 01:51:08;;;;;;;1.75;0.90;;;;;;;9.49;54.88;100850.84;4922536;28;98166;-60
2021/03/21 01:53:38;;;;;;;2.10;1.05;;;;;;;9.50;55.11;100843.59;4924238;28;98632;-63
2021/03/21 01:56:05;;;;;;;2.05;0.88;;;;;;;9.47;55.06;100839.53;4905324;28;105074;-63
2021/03/21 01:58:31;;;;;;;1.65;0.88;;;;;;;9.44;54.81;100829.28;4921136;28;98689;-60
2021/03/21 02:01:00;;;;;;;2.25;0.93;;;;;;;9.41;55.28;100834.34;4905980;28;98042;-60
2021/03/21 02:03:26;;;;;;;2.22;1.15;;;;;;;9.40;55.55;100827.34;4923548;28;98016;-60
2021/03/21 02:06:06;;;;;;;2.40;1.00;;;;;;;9.37;55.15;100831.34;4922372;28;128087;-61
2021/03/21 02:08:54;;;;;;;2.50;1.00;;;;;;;9.37;54.93;100822.44;4906789;28;98500;-63
2021/03/21 02:11:57;;;;;;;1.40;0.80;;;;;;;9.36;54.89;100820.84;4908084;28;97790;-63
2021/03/21 02:14:53;;;;;;;2.08;0.65;;;;;;;9.35;55.92;100814.63;4922431;28;98428;-63
2021/03/21 02:17:59;;;;;;;1.77;0.80;;;;;;;9.35;55.67;100811.91;4941590;28;98253;-63
2021/03/21 02:21:15;;;;;;;2.22;1.02;;;;;;;9.33;56.25;100814.06;4921208;28;98103;-60
2021/03/21 02:24:09;;;;;;;1.98;1.00;;;;;;;9.32;55.99;100815.13;4921448;28;99130;-60
2021/03/21 02:27:10;;;;;;;2.30;1.10;;;;;;;9.32;56.50;100807.06;4922072;28;98700;-60
2021/03/21 02:29:40;;;;;;;2.33;1.20;;;;;;;9.34;56.27;100797.66;4921452;28;98082;-60
2021/03/21 02:32:14;;;;;;;2.65;1.20;;;;;;;9.33;56.16;100797.94;4922102;28;97877;-63
2021/03/21 02:35:03;;;;;;;2.28;1.20;;;;;;;9.34;56.25;100796.84;4921530;28;98132;-60
2021/03/21 02:38:07;;;;;;;2.63;1.17;;;;;;;9.33;56.09;100792.53;4921137;28;98114;-60
2021/03/21 02:40:42;;;;;;;2.42;1.40;;;;;;;9.34;56.16;100786.91;4923612;28;97834;-61
2021/03/21 02:43:19;;;;;;;3.17;1.25;;;;;;;9.34;56.41;100775.31;4920496;28;98134;-60
2021/03/21 02:45:49;;;;;;;1.92;1.20;;;;;;;9.36;56.13;100783.16;4905975;28;97882;-63
2021/03/21 02:48:41;;;;;;;3.13;1.45;;;;;;;9.32;56.19;100764.84;4937799;28;98174;-61
2021/03/21 02:51:12;;;;;;;2.95;1.20;;;;;;;9.34;56.10;100760.00;4900337;28;118682;-63
2021/03/21 02:53:46;;;;;;;2.22;1.30;;;;;;;9.35;56.48;100758.13;4920744;28;98258;-60
2021/03/21 02:56:24;;;;;;;2.78;1.20;;;;;;;9.34;56.18;100749.22;4905275;28;97826;-63
2021/03/21 02:59:08;;;;;;;2.08;1.30;;;;;;;9.32;56.45;100740.63;4904617;28;98557;-63
2021/03/21 03:01:49;;;;;;;2.83;1.33;;;;;;;9.33;56.26;100736.03;4904614;28;99791;-60
2021/03/21 03:04:22;;;;;;;2.92;1.40;;;;;;;9.34;55.84;100732.28;4875536;28;98398;-61
2021/03/21 03:07:04;;;;;;;1.98;1.27;;;;;;;9.31;56.02;100724.72;4921064;28;97836;-60
2021/03/21 03:09:49;;;;;;;2.43;1.50;;;;;;;9.31;56.00;100722.84;4906027;28;97814;-63
2021/03/21 03:12:23;;;;;;;3.05;1.60;;;;;;;9.30;55.88;100720.41;4921242;28;98286;-60
2021/03/21 03:14:49;;;;;;;1.98;1.30;;;;;;;9.29;56.04;100706.16;4888677;28;100138;-63
2021/03/21 03:17:31;;;;;;;2.80;1.50;;;;;;;9.32;56.63;100699.47;4920441;28;117483;-60
2021/03/21 03:20:34;;;;;;;2.83;1.53;;;;;;;9.31;56.52;100689.72;4920485;28;98533;-60
2021/03/21 03:23:09;;;;;;;;;;;;;;;9.31;56.21;100697.81;4922790;28;98084;-63
2021/03/21 03:25:53;;;;;;;1.77;1.10;;;;;;;9.28;56.70;100690.28;4905888;28;97908;-63
2021/03/21 03:28:42;;;;;;;2.50;1.25;;;;;;;9.30;56.30;100683.53;4921156;28;97834;-60
2021/03/21 03:31:41;;;;;;;2.28;1.30;;;;;;;9.31;56.61;100685.19;4907608;28;98234;-60
2021/03/21 03:34:07;;;;;;;2.28;1.40;;;;;;;9.32;56.62;100677.94;4905623;28;98633;-63
2021/03/21 03:36:34;;;;;;;2.25;1.35;;;;;;;9.31;55.99;100669.06;4920044;28;106348;-63
2021/03/21 03:39:00;;;;;;;3.55;1.50;;;;;;;9.33;56.05;100661.53;4920201;28;97911;-60
2021/03/21 03:42:08;;;;;;;2.70;1.40;;;;;;;9.34;57.03;100662.34;4921578;28;108896;-60
2021/03/21 03:44:55;;;;;;;2.47;1.40;;;;;;;9.31;56.60;100652.91;4920135;28;97860;-63
2021/03/21 03:47:29;;;;;;;2.42;1.27;;;;;;;9.34;56.38;100652.38;4920148;28;98209;-61
2021/03/21 03:50:04;;;;;;;1.75;1.13;;;;;;;9.34;56.34;100649.69;4920606;28;98104;-63
2021/03/21 03:53:05;;;;;;;2.20;1.27;;;;;;;9.36;56.64;100654.03;4920038;28;98063;-63
2021/03/21 03:55:35;;;;;;;1.75;0.95;;;;;;;9.34;57.03;100641.63;4920376;28;98961;-61
2021/03/21 03:58:09;;;;;;;1.92;1.08;;;;;;;9.38;56.63;100643.81;4918913;28;119744;-62
2021/03/21 04:00:44;;;;;;;2.40;1.30;;;;;;;9.38;56.36;100628.47;4904706;28;97856;-60
2021/03/21 04:03:42;;;;;;;2.10;1.40;;;;;;;9.35;56.00;100631.66;4904583;28;98791;-60
2021/03/21 04:06:36;;;;;;;2.33;1.27;;;;;;;9.34;56.63;100630.06;4900664;28;98469;-63
2021/03/21 04:09:21;;;;;;;2.30;1.40;;;;;;;9.32;56.38;100618.75;4914783;28;98921;-61
2021/03/21 04:12:10;;;;;;;2.20;1.30;;;;;;;9.34;56.68;100613.91;4934512;28;108172;-60
2021/03/21 04:14:44;;;;;;;2.58;1.40;;;;;;;9.35;56.49;100610.16;4919337;28;97918;-61
2021/03/21 04:17:24;;;;;;;2.58;1.52;;;;;;;9.34;56.20;100595.06;4935801;28;98847;-61
2021/03/21 04:20:16;;;;;;;2.20;1.20;;;;;;;9.34;56.55;100595.06;4921652;28;97919;-63
2021/03/21 04:22:50;;;;;;;2.40;1.20;;;;;;;9.36;56.38;100600.22;4936793;28;98513;-60
2021/03/21 04:25:28;;;;;;;2.33;1.33;;;;;;;9.36;56.45;100601.03;4904279;28;98549;-61
2021/03/21 04:28:00;;;;;;;2.28;1.60;;;;;;;9.36;56.87;100590.25;4935436;28;99092;-63
2021/03/21 04:30:33;;;;;;;1.90;1.30;;;;;;;9.38;56.72;100579.22;4902958;28;100569;-63
2021/03/21 04:32:59;;;;;;;;;;;;;;;9.37;56.93;100585.69;4904042;28;97964;-61
2021/03/21 04:35:33;;;;;;;2.38;1.48;;;;;;;9.33;56.83;100580.00;4935041;28;121537;-60
2021/03/21 04:38:06;;;;;;;2.28;1.40;;;;;;;9.34;56.46;100573.56;4935370;28;115685;-61
2021/03/21 04:40:32;;;;;;;1.92;1.50;;;;;;;9.35;56.96;100583.25;4934998;28;98634;-61
2021/03/21 04:43:11;;;;;;;3.35;1.80;;;;;;;9.34;57.06;100577.06;4920455;28;123696;-60
2021/03/21 04:45:44;;;;;;;2.90;1.70;;;;;;;9.35;57.02;100572.47;4903983;28;98534;-61
2021/03/21 04:48:12;;;;;;;2.50;1.73;;;;;;;9.37;57.53;100569.56;4919480;28;111246;-61
2021/03/21 04:50:38;;;;;;;2.55;1.45;;;;;;;9.39;57.04;100573.59;4902991;28;98092;-63
2021/03/21 04:53:32;;;;;;;2.20;1.73;;;;;;;9.38;56.89;100574.66;4919940;28;98588;-60
2021/03/21 04:56:05;;;;;;;2.63;1.75;;;;;;;9.35;56.73;100572.47;4907106;28;98753;-61
2021/03/21 04:58:33;;;;;;;2.70;1.60;;;;;;;9.36;57.72;100566.06;4903557;28;98145;-61
2021/03/21 05:01:14;;;;;;;2.45;1.90;;;;;;;9.38;57.16;100563.91;4902974;28;98392;-60
2021/03/21 05:03:51;;;;;;;2.50;1.80;;;;;;;9.38;57.18;100563.91;4905338;28;97853;-63
2021/03/21 05:06:30;;;;;;;2.00;1.55;;;;;;;9.36;57.70;100557.97;4903776;28;98686;-61
2021/03/21 05:09:01;;;;;;;2.92;1.75;;;;;;;9.38;57.58;100555.03;4904452;28;98043;-63
2021/03/21 05:11:44;;;;;;;2.72;2.00;;;;;;;9.39;57.97;100557.44;4887017;28;108310;-61
2021/03/21 05:14:51;;;;;;;2.75;1.85;;;;;;;9.41;57.67;100558.00;4919434;28;105270;-61
2021/03/21 05:17:41;;;;;;;3.67;1.83;;;;;;;9.49;57.50;100552.16;4921195;28;98276;-61
2021/03/21 05:20:17;;;;;;;2.38;1.85;;;;;;;9.61;57.34;100556.53;4919489;28;98445;-63
2021/03/21 05:23:24;;;;;;;3.47;1.75;;;;;;;9.66;57.68;100543.91;4921445;28;98111;-60
2021/03/21 05:25:58;;;;;;;2.72;1.92;;;;;;;9.74;57.23;100553.41;4883113;28;108697;-61
2021/03/21 05:28:39;;;;;;;2.85;1.95;;;;;;;9.79;57.97;100542.69;4906000;28;115677;-63
2021/03/21 05:31:05;;;;;;;2.35;1.85;;;;;;;9.76;57.89;100535.13;4923011;28;98410;-63
2021/03/21 05:33:31;;;;;;;2.95;1.73;;;;;;;9.67;58.18;100539.34;4904760;28;126727;-61
2021/03/21 05:35:58;;;;;;;2.50;2.08;;;;;;;9.55;58.54;100529.59;4920941;28;119400;-63
2021/03/21 05:38:52;;;;;;;3.05;2.03;;;;;;;9.48;58.84;100520.94;4889948;28;117586;-63
2021/03/21 05:41:40;;;;;;;3.58;2.33;;;;;;;9.41;59.51;100523.03;4934488;28;100037;-63
2021/03/21 05:44:39;;;;;;;3.13;2.40;;;;;;;9.36;59.47;100520.31;4917451;28;98014;-61
2021/03/21 05:47:36;;;;;;;3.13;2.10;;;;;;;9.29;59.32;100517.03;4924187;28;97968;-63
2021/03/21 05:50:04;;;;;;;3.33;2.63;;;;;;;9.27;59.63;100522.66;4905810;28;98544;-63
2021/03/21 05:53:17;;;;;;;3.25;2.60;;;;;;;9.21;60.19;100517.50;4921629;28;98693;-61
2021/03/21 05:56:29;;;;;;;4.03;2.88;;;;;;;9.09;60.73;100518.47;4923368;28;98094;-63
2021/03/21 05:59:56;;;;;;;4.38;3.30;;;;;;;9.01;60.79;100520.84;4921447;28;98240;-63
2021/03/21 06:03:00;;;;;;;3.70;2.72;;;;;;;8.98;60.82;100516.75;4922178;28;98673;-60
2021/03/21 06:05:50;;;;;;;4.35;3.10;;;;;;;8.97;60.87;100511.66;4923120;28;98648;-63
2021/03/21 06:08:47;;;;;;;4.13;3.10;;;;;;;8.85;61.88;100509.94;4920905;28;98268;-61
2021/03/21 06:11:55;;;;;;;4.43;3.63;;;;;;;8.82;61.45;100509.63;4923517;28;97852;-63
2021/03/21 06:14:47;;;;;;;4.97;3.80;;;;;;;8.80;62.08;100499.16;4920022;28;98724;-63
2021/03/21 06:17:38;;;;;;;5.03;3.70;;;;;;;8.78;62.55;100500.47;4910360;28;98464;-60
2021/03/21 06:20:13;;;;;;;4.55;3.95;;;;;;;8.79;62.33;100496.69;4916035;28;97945;-60
2021/03/21 06:22:48;;;;;;;5.18;4.15;;;;;;;8.79;62.51;100489.44;4919811;28;97919;-62
2021/03/21 06:25:56;;;;;;;4.97;4.13;;;;;;;8.79;62.32;100489.44;4917345;28;99180;-63
2021/03/21 06:29:14;;;;;;;5.45;4.32;;;;;;;8.76;62.50;100492.66;4918089;28;98664;-63
2021/03/21 06:32:07;;;;;;;6.47;4.40;;;;;;;8.80;62.90;100492.94;4899424;28;98411;-63
2021/03/21 06:35:00;;;;;;;5.53;4.40;;;;;;;8.80;63.27;100485.72;4918656;28;98085;-60
2021/03/21 06:37:48;;;;;;;6.10;4.60;;;;;;;8.75;63.16;100476.75;4917019;28;98442;-61
2021/03/21 06:40:44;;;;;;;5.55;4.38;;;;;;;8.79;63.25;100492.13;4919898;28;98674;-61
2021/03/21 06:43:37;;;;;;;5.20;4.20;;;;;;;8.74;63.61;100475.97;4918561;28;98265;-60
2021/03/21 06:46:38;;;;;;;6.18;4.75;;;;;;;8.76;63.24;100473.84;4901203;28;110653;-63
2021/03/21 06:49:13;;;;;;;5.97;4.88;;;;;;;8.70;63.54;100476.72;4901823;28;114970;-60
2021/03/21 06:52:07;;;;;;;5.20;4.68;;;;;;;8.76;63.83;100468.47;4916164;28;112486;-63
2021/03/21 06:55:02;;;;;;;5.68;4.60;;;;;;;8.73;63.52;100465.47;4917527;28;98085;-60
2021/03/21 06:58:08;;;;;;;6.78;4.93;;;;;;;8.73;64.33;100465.47;4895286;28;99722;-60
2021/03/21 07:01:11;;;;;;;6.03;5.22;;;;;;;8.74;64.08;100464.41;4910821;28;98439;-61
2021/03/21 07:04:05;;;;;;;6.43;5.18;;;;;;;8.80;63.89;100469.56;4918891;28;98056;-63
2021/03/21 07:07:09;;;;;;;6.28;5.32;;;;;;;8.88;63.58;100462.91;4917168;28;97895;-61
2021/03/21 07:09:56;;;;;;;7.57;5.85;;;;;;;8.83;63.72;100458.28;4917954;28;98163;-63
2021/03/21 07:12:59;;;;;;;7.70;5.97;;;;;;;8.90;63.69;100462.66;4919247;28;98297;-61
2021/03/21 07:15:46;;;;;;;6.30;5.50;;;;;;;8.93;64.04;100459.47;4948856;28;98664;-63
2021/03/21 07:18:14;;;;;;;7.68;6.00;;;;;;;8.97;63.88;100457.88;4919034;28;98221;-64
2021/03/21 07:21:02;;;;;;;6.75;5.55;;;;;;;9.05;64.11;100458.22;4919349;28;98002;-60
2021/03/21 07:24:14;;;;;;;7.57;6.10;;;;;;;9.02;63.83;100461.41;4916904;28;98239;-61
2021/03/21 07:27:02;;;;;;;7.15;6.00;;;;;;;9.09;63.29;100456.63;4919402;28;99323;-61
2021/03/21 07:30:03;;;;;;;7.35;6.15;;;;;;;9.04;64.19;100447.72;4916213;28;98345;-60
2021/03/21 07:33:02;;;;;;;6.45;5.78;;;;;;;9.12;64.20;100447.25;4899768;28;97978;-63
2021/03/21 07:35:37;;;;;;;8.27;6.32;;;;;;;9.19;63.99;100447.81;4903789;28;98547;-63
2021/03/21 07:38:22;;;;;;;7.18;6.20;;;;;;;9.17;63.85;100439.22;4915129;28;99562;-63
2021/03/21 07:41:05;;;;;;;6.90;6.20;;;;;;;9.18;64.03;100423.88;4917896;28;98498;-63
2021/03/21 07:43:54;;;;;;;6.70;6.00;;;;;;;9.04;64.62;100427.03;4916437;28;98089;-63
2021/03/21 07:46:35;;;;;;;7.32;6.20;;;;;;;9.12;64.01;100417.66;4913054;28;98778;-63
2021/03/21 07:49:18;;;;;;;7.70;6.60;;;;;;;9.14;64.85;100414.72;4916708;28;99071;-60
2021/03/21 07:52:08;;;;;;;6.88;6.20;;;;;;;9.14;64.40;100417.41;4916789;28;98277;-63
2021/03/21 07:54:42;;;;;;;7.10;6.40;;;;;;;9.06;64.78;100424.88;4916652;28;97906;-60
2021/03/21 07:57:26;;;;;;;6.93;6.20;;;;;;;9.05;65.24;100412.50;4917273;28;104977;-60
2021/03/21 07:59:52;;;;;;;6.68;5.97;;;;;;;9.02;64.69;100415.69;4915214;28;98700;-62
2021/03/21 08:02:24;;;;;;;7.45;6.65;;;;;;;9.03;65.55;100409.25;4917207;28;97946;-63
2021/03/21 08:04:50;;;;;;;6.83;6.10;;;;;;;9.06;65.17;100411.44;4916151;28;98040;-60
2021/03/21 08:07:32;;;;;;;7.63;6.57;;;;;;;9.02;65.56;100406.84;4932270;28;114015;-60
2021/03/21 08:09:59;;;;;;;7.70;6.78;;;;;;;9.02;65.10;100413.00;4917886;28;107151;-60
2021/03/21 08:12:39;;;;;;;8.30;6.47;;;;;;;9.04;65.60;100412.78;4916635;28;104350;-63
2021/03/21 08:15:21;;;;;;;7.15;6.30;;;;;;;9.04;65.39;100410.09;4900250;28;97970;-64
2021/03/21 08:18:04;;;;;;;6.88;6.18;;;;;;;9.10;65.28;100396.41;4900763;28;98975;-63
2021/03/21 08:20:33;;;;;;;7.53;6.43;;;;;;;9.12;64.66;100398.00;4934042;28;98513;-60
2021/03/21 08:23:25;;;;;;;6.88;6.18;;;;;;;9.21;65.25;100391.91;4932652;28;98534;-60
2021/03/21 08:25:53;;;;;;;6.93;6.20;;;;;;;9.23;65.28;100381.69;4918504;28;97968;-63
2021/03/21 08:28:21;;;;;;;6.85;6.03;;;;;;;9.45;64.33;100373.47;4915600;28;98361;-63
2021/03/21 08:30:57;;;;;;;6.80;6.10;;;;;;;9.42;63.77;100373.19;4916476;28;99457;-63
2021/03/21 08:33:32;;;;;;;6.95;6.03;;;;;;;9.37;64.56;100373.97;4917780;28;98167;-63
2021/03/21 08:36:15;;;;;;;6.85;5.82;;;;;;;9.34;64.90;100367.22;4918668;28;98739;-63
2021/03/21 08:38:50;;;;;;;7.00;5.82;;;;;;;9.42;65.13;100371.28;4914634;28;98631;-60
2021/03/21 08:41:16;;;;;;;6.75;5.80;;;;;;;9.39;64.83;100369.13;4900908;28;102166;-63
2021/03/21 08:43:42;;;;;;;6.05;5.40;;;;;;;9.31;64.86;100362.38;4915537;28;123630;-63
2021/03/21 08:46:22;;;;;;;6.25;5.65;;;;;;;9.29;65.09;100353.75;4916077;28;118278;-60
2021/03/21 08:48:48;;;;;;;12.38;10.32;;;;;;;9.31;65.44;100350.78;4915418;28;98308;-60
2021/03/21 08:51:14;;;;;;;15.65;12.82;;;;;;;9.28;65.48;100357.50;4898759;28;120488;-63
2021/03/21 08:54:09;;;;;;;21.33;14.85;;;;;;;9.29;65.44;100344.88;4917588;28;98064;-64
2021/03/21 08:56:39;;;;;;;21.65;15.60;;;;;;;9.38;65.15;100340.59;4919602;28;97986;-63
2021/03/21 08:59:23;;;;;;;17.77;14.23;;;;;;;9.34;65.13;100348.38;4920347;28;98804;-63
2021/03/21 09:02:01;;;;;;;16.08;12.98;;;;;;;9.29;65.33;100334.13;4921490;28;98244;-63
2021/03/21 09:04:27;;;;;;;15.85;12.30;;;;;;;9.27;65.54;100330.84;4919084;28;98355;-60
2021/03/21 09:06:53;;;;;;;15.60;11.80;;;;;;;9.23;65.97;100332.47;4921173;28;104654;-63
2021/03/21 09:09:32;;;;;;;14.88;11.68;;;;;;;9.25;65.73;100323.06;4902331;28;100474;-63
2021/03/21 09:12:26;;;;;;;13.70;10.93;;;;;;;9.34;65.33;100321.47;4921590;28;98470;-60
2021/03/21 09:14:58;;;;;;;13.48;11.20;;;;;;;9.41;65.41;100325.81;4918499;28;98360;-60
2021/03/21 09:17:26;;;;;;;11.68;10.45;;;;;;;9.40;65.38;100321.53;4951810;28;97861;-60
2021/03/21 09:19:58;;;;;;;12.75;10.55;;;;;;;9.32;66.03;100315.56;4915690;28;98589;-60
2021/03/21 09:22:41;;;;;;;11.70;10.27;;;;;;;9.33;66.61;100322.56;4921315;28;103376;-64
2021/03/21 09:25:27;;;;;;;;;;;;;;;9.36;66.70;100317.75;4918486;28;98229;-61
2021/03/21 09:27:55;;;;;;;20.65;16.17;;;;;;;9.33;66.19;100322.56;4917304;28;98175;-61
2021/03/21 09:30:38;;;;;;;20.90;16.83;;;;;;;9.36;66.14;100317.75;4886313;28;98466;-64
2021/03/21 09:33:13;;;;;;;19.58;15.32;;;;;;;9.33;66.43;100327.94;4920473;28;98370;-60
2021/03/21 09:35:45;;;;;;;19.27;15.70;;;;;;;9.36;66.35;100315.84;4902820;28;115474;-63
2021/03/21 09:38:21;;;;;;;19.10;16.00;;;;;;;9.36;66.34;100312.38;4919076;28;97843;-60
2021/03/21 09:41:02;;;;;;;18.85;15.02;;;;;;;9.40;66.30;100310.75;4918628;28;118221;-64
2021/03/21 09:43:37;;;;;;;19.17;14.68;;;;;;;9.46;66.69;100315.06;4886171;28;98843;-60
2021/03/21 09:46:17;;;;;;;15.85;13.52;;;;;;;9.47;66.59;100311.31;4920250;28;98054;-63
2021/03/21 09:48:59;;;;;;;15.93;12.63;;;;;;;9.52;66.18;100317.53;4920691;28;98155;-64
2021/03/21 09:52:03;;;;;;;14.20;11.80;;;;;;;9.57;66.99;100322.13;4918560;28;98933;-60
2021/03/21 09:54:32;;;;;;;13.13;10.98;;;;;;;9.63;66.36;100313.00;4898232;28;98325;-61
2021/03/21 09:57:52;;;;;;;11.95;10.65;;;;;;;9.69;66.97;100313.81;4918889;28;97980;-60
2021/03/21 10:00:39;;;;;;;11.38;9.68;;;;;;;9.71;66.85;100312.47;4917027;28;97923;-61
2021/03/21 10:03:18;;;;;;;11.57;9.43;;;;;;;9.76;66.01;100312.50;4918057;28;98216;-63
2021/03/21 10:06:08;;;;;;;11.35;9.13;;;;;;;10.02;65.64;100307.97;4888275;28;98675;-63
2021/03/21 10:09:23;;;;;;;9.77;8.50;;;;;;;10.11;65.49;100305.56;4914548;28;100601;-60
2021/03/21 10:11:52;;;;;;;9.38;7.93;;;;;;;10.17;65.55;100304.47;4865946;28;98310;-63
2021/03/21 10:14:30;;;;;;;8.18;7.38;;;;;;;10.19;66.80;100299.63;4860217;28;99036;-60
2021/03/21 10:17:00;;;;;;;8.30;7.40;;;;;;;10.22;65.50;100303.69;4901669;28;98277;-60
2021/03/21 10:19:48;;;;;;;7.57;6.78;;;;;;;10.33;65.80;100297.22;4915330;28;98277;-60
2021/03/21 10:22:20;;;;;;;6.88;6.03;;;;;;;10.39;65.56;100298.06;4920122;28;98040;-60
2021/03/21 10:24:48;;;;;;;5.90;5.40;;;;;;;10.79;64.82;100305.28;4919109;28;98693;-60
2021/03/21 10:27:18;;;;;;;6.65;5.70;;;;;;;10.89;64.00;100307.97;4919325;28;98129;-62
2021/03/21 10:30:14;;;;;;;6.07;5.45;;;;;;;10.95;64.42;100296.09;4919457;28;98606;-60
2021/03/21 10:33:03;;;;;;;5.20;4.57;;;;;;;11.03;64.84;100297.41;4920229;28;98056;-60
2021/03/21 10:35:32;;;;;;;4.63;4.22;;;;;;;10.85;65.57;100301.53;4917634;28;98832;-63
2021/03/21 10:38:05;;;;;;;4.43;3.88;;;;;;;10.83;65.18;100298.28;4919847;28;98509;-63
2021/03/21 10:40:31;;;;;;;4.88;4.20;;;;;;;10.90;65.49;100296.09;4917006;28;111648;-63
2021/03/21 10:43:16;;;;;;;4.18;3.50;;;;;;;10.91;65.69;100295.00;4919193;28;97780;-64
2021/03/21 10:45:42;;;;;;;3.40;3.10;;;;;;;10.83;65.89;100295.56;4934632;28;98647;-63
2021/03/21 10:48:14;;;;;;;3.95;3.17;;;;;;;10.90;66.18;100304.19;4918954;28;99339;-64
2021/03/21 10:50:51;;;;;;;3.47;3.10;;;;;;;11.03;65.53;100308.19;4917990;28;98092;-60
2021/03/21 10:53:24;;;;;;;2.78;2.45;;;;;;;11.02;66.03;100299.31;4919148;28;97787;-64
2021/03/21 10:56:17;;;;;;;3.10;2.40;;;;;;;11.19;65.07;100307.06;4919724;28;98537;-64
2021/03/21 10:58:46;;;;;;;3.25;2.22;;;;;;;11.50;64.59;100286.16;4916863;28;98756;-64
2021/03/21 11:01:25;;;;;;;2.50;1.92;;;;;;;11.92;63.10;100286.78;4920075;28;97770;-64
2021/03/21 11:04:24;;;;;;;2.15;1.65;;;;;;;12.43;62.07;100287.19;4916987;28;97932;-64
2021/03/21 11:06:56;;;;;;;2.17;1.60;;;;;;;12.95;60.33;100299.13;4917362;28;98320;-64
2021/03/21 11:09:27;;;;;;;1.85;0.80;;;;;;;13.69;58.63;100290.69;4918337;28;98777;-61
2021/03/21 11:11:53;;;;;;;2.00;1.00;;;;;;;14.07;58.14;100286.09;4919553;28;97874;-64
2021/03/21 11:14:25;;;;;;;1.70;0.80;;;;;;;13.66;59.52;100300.19;4917265;28;98214;-61
2021/03/21 11:17:17;;;;;;;1.50;0.75;;;;;;;13.51;60.34;100289.56;4919262;28;99276;-61
2021/03/21 11:19:52;;;;;;;1.58;0.60;;;;;;;13.50;59.45;100298.78;4932343;28;99102;-64
2021/03/21 11:22:33;;;;;;;1.65;0.60;;;;;;;13.57;59.26;100296.53;4919144;28;97901;-60
2021/03/21 11:25:02;;;;;;;2.55;0.60;;;;;;;13.36;59.72;100303.28;4933851;28;98146;-61
2021/03/21 11:27:36;;;;;;;1.27;0.38;;;;;;;12.93;61.03;100303.19;4918302;28;97983;-64
2021/03/21 11:30:17;;;;;;;2.53;0.60;;;;;;;12.60;62.06;100311.09;4919813;28;98362;-61
2021/03/21 11:32:43;;;;;;;1.08;0.35;;;;;;;12.32;62.63;100311.88;4918621;28;97985;-64
2021/03/21 11:35:28;;;;;;;1.83;0.50;;;;;;;12.07;63.48;100318.31;4919031;28;98323;-61
2021/03/21 11:37:55;;;;;;;1.35;0.40;;;;;;;11.86;64.02;100325.69;4918419;28;98244;-63
2021/03/21 11:40:35;;;;;;;1.33;0.40;;;;;;;11.72;64.76;100337.09;4916866;28;98040;-61
2021/03/21 11:43:20;;;;;;;2.20;0.50;;;;;;;11.54;65.27;100340.41;4918465;28;97848;-64
2021/03/21 11:45:48;;;;;;;1.65;0.50;;;;;;;11.45;64.88;100336.69;4919139;28;98122;-64
2021/03/21 11:48:21;;;;;;;1.92;0.60;;;;;;;11.30;65.40;100342.94;4949347;28;98240;-61
2021/03/21 11:50:47;;;;;;;1.83;0.47;;;;;;;11.17;65.71;100346.22;4918465;28;98954;-64
2021/03/21 11:53:20;;;;;;;2.10;0.47;;;;;;;11.05;65.53;100358.09;4885378;28;98951;-61
2021/03/21 11:56:00;;;;;;;2.78;0.70;;;;;;;10.96;65.51;100362.41;4933064;28;99776;-64
2021/03/21 11:58:36;;;;;;;2.67;0.90;;;;;;;10.88;66.04;100362.97;4901308;28;98390;-64
2021/03/21 12:01:17;;;;;;;2.80;0.80;;;;;;;10.85;65.33;100370.81;4900376;28;110292;-63
2021/03/21 12:03:52;;;;;;;3.92;1.10;;;;;;;10.81;65.99;100368.66;4910311;28;98510;-63
2021/03/21 12:06:41;;;;;;;3.58;1.00;;;;;;;10.82;64.90;100361.38;4917493;28;97918;-63
2021/03/21 12:09:29;;;;;;;6.35;1.42;;;;;;;10.90;64.89;100368.91;4916894;28;98563;-64
2021/03/21 12:12:01;;;;;;;4.32;1.38;;;;;;;11.06;64.22;100372.41;4916144;28;98610;-61
2021/03/21 12:14:43;;;;;;;4.90;1.55;;;;;;;11.22;64.04;100357.78;4901159;28;98617;-60
2021/03/21 12:17:32;;;;;;;5.73;1.33;;;;;;;11.48;63.11;100363.13;4918614;28;98145;-61
2021/03/21 12:20:29;;;;;;;6.68;1.52;;;;;;;11.70;62.71;100351.94;4918260;28;99306;-65
2021/03/21 12:22:55;;;;;;;5.28;1.50;;;;;;;12.29;60.70;100353.78;4949292;28;98915;-64
2021/03/21 12:25:29;;;;;;;6.35;1.55;;;;;;;12.69;59.49;100352.69;4948387;28;106067;-64
2021/03/21 12:28:21;;;;;;;5.72;1.27;;;;;;;12.52;60.12;100358.47;4918695;28;97821;-61